createdAt,value
2017-06-12T00:00:44.138Z,21.1
2017-06-12T00:01:43.860Z,21.1
2017-06-12T00:02:43.096Z,21.1
2017-06-12T00:03:42.323Z,21.1
2017-06-12T00:04:42.042Z,21
2017-06-12T00:05:41.265Z,21
2017-06-12T00:06:40.993Z,21
2017-06-12T00:07:40.225Z,21
2017-06-12T00:08:39.331Z,21
2017-06-12T00:09:39.202Z,20.9
2017-06-12T00:10:38.184Z,20.9
2017-06-12T00:11:37.786Z,20.9
2017-06-12T00:12:37.505Z,20.9
2017-06-12T00:13:36.614Z,20.9
2017-06-12T00:14:36.346Z,20.9
2017-06-12T00:15:35.606Z,20.8
2017-06-12T00:16:34.824Z,20.8
2017-06-12T00:17:34.549Z,20.8
2017-06-12T00:18:33.712Z,20.8
2017-06-12T00:19:33.144Z,20.8
2017-06-12T00:20:32.247Z,20.8
2017-06-12T00:21:31.977Z,20.9
2017-06-12T00:22:31.201Z,20.8
2017-06-12T00:23:30.926Z,20.9
2017-06-12T00:24:01.463Z,20.9
2017-06-12T00:25:29.756Z,20.9
2017-06-12T00:26:28.984Z,20.9
2017-06-12T00:27:28.207Z,20.9
2017-06-12T00:28:27.939Z,20.9
2017-06-12T00:29:27.164Z,20.9
2017-06-12T00:30:26.893Z,20.9
2017-06-12T00:31:26.113Z,20.9
2017-06-12T00:32:25.338Z,20.9
2017-06-12T00:33:25.057Z,20.9
2017-06-12T00:34:24.359Z,20.9
2017-06-12T00:35:23.579Z,20.9
2017-06-12T00:36:23.187Z,20.9
2017-06-12T00:38:21.799Z,21
2017-06-12T00:39:21.520Z,20.9
2017-06-12T00:40:20.739Z,20.9
2017-06-12T00:41:19.964Z,21
2017-06-12T00:42:19.691Z,21
2017-06-12T00:43:18.912Z,21
2017-06-12T00:44:18.144Z,20.9
2017-06-12T00:45:17.754Z,20.9
2017-06-12T00:46:17.439Z,20.9
2017-06-12T00:47:16.659Z,20.9
2017-06-12T00:48:15.880Z,21
2017-06-12T00:49:15.605Z,20.9
2017-06-12T00:50:14.823Z,21
2017-06-12T00:51:14.429Z,21
2017-06-12T00:52:13.659Z,21
2017-06-12T00:53:12.952Z,21
2017-06-12T00:54:12.675Z,20.9
2017-06-12T00:55:11.779Z,20.9
2017-06-12T00:56:11.388Z,20.9
2017-06-12T00:57:10.374Z,20.9
2017-06-12T00:58:10.102Z,20.9
2017-06-12T00:59:09.324Z,20.9
2017-06-12T01:00:09.050Z,20.9
2017-06-12T01:01:08.154Z,20.9
2017-06-12T01:02:07.884Z,20.9
2017-06-12T01:03:07.104Z,20.8
2017-06-12T01:04:06.333Z,20.8
2017-06-12T01:05:06.054Z,20.8
2017-06-12T01:06:05.842Z,20.8
2017-06-12T01:07:04.561Z,20.8
2017-06-12T01:08:04.290Z,20.7
2017-06-12T01:09:03.454Z,20.7
2017-06-12T01:10:03.061Z,20.7
2017-06-12T01:11:02.560Z,20.7
2017-06-12T01:12:01.662Z,20.7
2017-06-12T01:13:01.390Z,20.7
2017-06-12T01:14:00.618Z,20.7
2017-06-12T01:14:59.777Z,20.7
2017-06-12T01:15:59.507Z,20.7
2017-06-12T01:16:58.493Z,20.7
2017-06-12T01:17:57.981Z,20.7
2017-06-12T01:18:58.346Z,20.8
2017-06-12T01:19:56.835Z,20.8
2017-06-12T01:20:56.558Z,20.8
2017-06-12T01:21:55.777Z,20.8
2017-06-12T01:22:55.499Z,20.9
2017-06-12T01:23:54.717Z,20.8
2017-06-12T01:24:53.931Z,20.8
2017-06-12T01:25:53.655Z,20.8
2017-06-12T01:26:52.763Z,20.8
2017-06-12T01:27:52.490Z,20.8
2017-06-12T01:28:51.597Z,20.9
2017-06-12T01:29:51.323Z,20.8
2017-06-12T01:30:50.543Z,20.8
2017-06-12T01:31:49.766Z,20.8
2017-06-12T01:32:49.487Z,20.8
2017-06-12T01:33:48.702Z,20.8
2017-06-12T01:34:19.243Z,20.8
2017-06-12T01:34:49.778Z,20.8
2017-06-12T01:35:20.307Z,20.8
2017-06-12T01:35:50.841Z,20.8
2017-06-12T01:36:21.379Z,20.8
2017-06-12T01:36:51.906Z,20.8
2017-06-12T01:38:45.862Z,20.8
2017-06-12T01:39:45.360Z,20.7
2017-06-12T01:40:44.579Z,20.8
2017-06-12T01:41:44.186Z,20.7
2017-06-12T01:42:43.467Z,20.7
2017-06-12T01:43:42.685Z,20.7
2017-06-12T01:44:42.415Z,20.6
2017-06-12T01:45:41.395Z,20.5
2017-06-12T01:46:41.118Z,20.5
2017-06-12T01:47:40.943Z,20.5
2017-06-12T01:48:39.608Z,20.4
2017-06-12T01:49:39.331Z,20.4
2017-06-12T01:50:38.562Z,20.4
2017-06-12T01:51:37.787Z,20.3
2017-06-12T01:52:37.509Z,20.4
2017-06-12T01:53:36.728Z,20.3
2017-06-12T01:54:36.454Z,20.3
2017-06-12T01:55:35.671Z,20.3
2017-06-12T01:56:34.652Z,20.3
2017-06-12T01:57:34.378Z,20.3
2017-06-12T01:58:33.600Z,20.3
2017-06-12T01:59:33.328Z,20.3
2017-06-12T02:00:32.623Z,20.3
2017-06-12T02:01:31.844Z,20.3
2017-06-12T02:02:31.565Z,20.3
2017-06-12T02:03:30.781Z,20.3
2017-06-12T02:04:30.005Z,20.3
2017-06-12T02:05:29.744Z,20.3
2017-06-12T02:06:28.964Z,20.3
2017-06-12T02:07:28.259Z,20.3
2017-06-12T02:08:27.982Z,20.5
2017-06-12T02:09:27.195Z,20.4
2017-06-12T02:10:26.424Z,20.4
2017-06-12T02:11:26.165Z,20.4
2017-06-12T02:12:25.382Z,20.4
2017-06-12T02:13:24.607Z,20.4
2017-06-12T02:14:24.328Z,20.5
2017-06-12T02:15:23.547Z,20.5
2017-06-12T02:17:22.498Z,20.5
2017-06-12T02:18:21.642Z,20.5
2017-06-12T02:19:21.130Z,20.5
2017-06-12T02:20:20.352Z,20.5
2017-06-12T02:21:20.072Z,20.5
2017-06-12T02:22:19.294Z,20.4
2017-06-12T02:23:19.604Z,20.4
2017-06-12T02:24:18.320Z,20.4
2017-06-12T02:26:16.937Z,20.3
2017-06-12T02:27:16.153Z,20.3
2017-06-12T02:28:15.884Z,20.4
2017-06-12T02:29:15.107Z,20.4
2017-06-12T02:30:14.834Z,20.4
2017-06-12T02:31:14.080Z,20.4
2017-06-12T02:32:13.186Z,20.4
2017-06-12T02:33:12.789Z,20.3
2017-06-12T02:34:12.006Z,20.3
2017-06-12T02:35:11.735Z,20.3
2017-06-12T02:36:10.961Z,20.3
2017-06-12T02:37:10.180Z,20.3
2017-06-12T02:38:09.904Z,20.2
2017-06-12T02:39:09.135Z,20.2
2017-06-12T02:40:08.237Z,20.2
2017-06-12T02:42:07.249Z,20.2
2017-06-12T02:43:06.984Z,20.2
2017-06-12T02:44:06.200Z,20.2
2017-06-12T02:45:05.564Z,20.3
2017-06-12T02:46:04.790Z,20.3
2017-06-12T02:47:04.515Z,20.3
2017-06-12T02:48:03.741Z,20.3
2017-06-12T02:50:02.355Z,20.3
2017-06-12T02:51:01.843Z,20.3
2017-06-12T02:52:01.137Z,20.3
2017-06-12T02:53:00.885Z,20.4
2017-06-12T02:54:00.110Z,20.3
2017-06-12T02:54:59.215Z,20.3
2017-06-12T02:55:58.707Z,20.3
2017-06-12T02:56:58.435Z,20.3
2017-06-12T02:57:57.537Z,20.3
2017-06-12T02:58:57.269Z,20.3
2017-06-12T02:59:56.489Z,20.3
2017-06-12T03:00:55.713Z,20.3
2017-06-12T03:01:55.320Z,20.3
2017-06-12T03:02:54.551Z,20.3
2017-06-12T03:03:54.278Z,20.3
2017-06-12T03:04:53.505Z,20.3
2017-06-12T03:05:52.735Z,20.2
2017-06-12T03:06:52.466Z,20.2
2017-06-12T03:07:51.998Z,20.2
2017-06-12T03:08:51.217Z,20.3
2017-06-12T03:09:50.441Z,20.3
2017-06-12T03:10:49.664Z,20.3
2017-06-12T03:11:49.271Z,20.3
2017-06-12T03:12:48.493Z,20.3
2017-06-12T03:13:48.645Z,20.3
2017-06-12T03:14:47.369Z,20.3
2017-06-12T03:15:46.631Z,20.3
2017-06-12T03:16:46.237Z,20.3
2017-06-12T03:17:45.462Z,20.4
2017-06-12T03:18:45.216Z,20.3
2017-06-12T03:19:44.327Z,20.3
2017-06-12T03:20:44.059Z,20.3
2017-06-12T03:21:42.930Z,20.3
2017-06-12T03:22:42.656Z,20.3
2017-06-12T03:23:41.905Z,20.3
2017-06-12T03:24:41.634Z,20.3
2017-06-12T03:25:40.862Z,20.3
2017-06-12T03:26:40.093Z,20.3
2017-06-12T03:27:40.403Z,20.3
2017-06-12T03:28:39.129Z,20.3
2017-06-12T03:30:37.741Z,20.3
2017-06-12T03:31:36.967Z,20.3
2017-06-12T03:32:36.695Z,20.3
2017-06-12T03:33:35.806Z,20.3
2017-06-12T03:34:35.533Z,20.3
2017-06-12T03:35:34.754Z,20.4
2017-06-12T03:36:33.984Z,20.3
2017-06-12T03:37:33.600Z,20.3
2017-06-12T03:38:32.822Z,20.3
2017-06-12T03:39:32.615Z,20.4
2017-06-12T03:40:31.719Z,20.4
2017-06-12T03:41:31.326Z,20.4
2017-06-12T03:42:30.549Z,20.4
2017-06-12T03:43:30.160Z,20.4
2017-06-12T03:44:29.458Z,20.3
2017-06-12T03:45:28.686Z,20.4
2017-06-12T03:46:27.911Z,20.4
2017-06-12T03:47:27.705Z,20.4
2017-06-12T03:48:26.934Z,20.4
2017-06-12T03:49:26.157Z,20.4
2017-06-12T03:50:25.886Z,20.4
2017-06-12T03:51:25.117Z,20.4
2017-06-12T03:52:24.345Z,20.4
2017-06-12T03:53:23.966Z,20.4
2017-06-12T03:54:23.188Z,20.4
2017-06-12T03:55:22.914Z,20.4
2017-06-12T03:55:53.451Z,20.4
2017-06-12T03:56:23.989Z,20.4
2017-06-12T03:56:54.408Z,20.4
2017-06-12T03:57:24.948Z,20.3
2017-06-12T03:57:55.483Z,20.3
2017-06-12T03:59:20.374Z,20.3
2017-06-12T04:00:19.478Z,20.3
2017-06-12T04:01:19.031Z,20.3
2017-06-12T04:02:18.648Z,20.3
2017-06-12T04:03:17.872Z,20.3
2017-06-12T04:04:17.098Z,20.2
2017-06-12T04:05:16.825Z,20.2
2017-06-12T04:06:16.049Z,20.2
2017-06-12T04:07:15.154Z,20.2
2017-06-12T04:08:14.879Z,20.2
2017-06-12T04:09:14.487Z,20.2
2017-06-12T04:10:13.737Z,20.2
2017-06-12T04:11:12.966Z,20.2
2017-06-12T04:12:12.268Z,20.2
2017-06-12T04:13:11.885Z,20.3
2017-06-12T04:14:10.994Z,20.3
2017-06-12T04:15:10.604Z,20.3
2017-06-12T04:16:09.924Z,20.3
2017-06-12T04:17:09.219Z,20.3
2017-06-12T04:18:09.259Z,20.3
2017-06-12T04:19:08.369Z,20.4
2017-06-12T04:21:06.982Z,20.4
2017-06-12T04:22:06.093Z,20.4
2017-06-12T04:24:05.208Z,20.5
2017-06-12T04:25:04.426Z,20.5
2017-06-12T04:26:04.151Z,20.5
2017-06-12T04:27:03.262Z,20.5
2017-06-12T04:28:02.644Z,20.5
2017-06-12T04:29:02.364Z,20.5
2017-06-12T04:30:01.469Z,20.5
2017-06-12T04:31:01.206Z,20.5
2017-06-12T04:32:00.434Z,20.5
2017-06-12T04:33:00.040Z,20.5
2017-06-12T04:33:59.265Z,20.5
2017-06-12T04:34:58.869Z,20.6
2017-06-12T04:35:58.095Z,20.5
2017-06-12T04:36:57.323Z,20.5
2017-06-12T04:37:57.052Z,20.5
2017-06-12T04:38:56.158Z,20.5
2017-06-12T04:39:55.765Z,20.5
2017-06-12T04:40:54.993Z,20.5
2017-06-12T04:41:54.217Z,20.5
2017-06-12T04:42:53.707Z,20.5
2017-06-12T04:43:53.432Z,20.5
2017-06-12T04:44:52.534Z,20.5
2017-06-12T04:45:51.591Z,20.5
2017-06-12T04:46:51.466Z,20.5
2017-06-12T04:47:50.947Z,20.6
2017-06-12T04:48:50.057Z,20.6
2017-06-12T04:49:49.673Z,20.6
2017-06-12T04:50:48.891Z,20.6
2017-06-12T04:51:48.617Z,20.6
2017-06-12T04:52:47.872Z,20.6
2017-06-12T04:53:47.092Z,20.6
2017-06-12T04:54:46.817Z,20.6
2017-06-12T04:55:46.046Z,20.6
2017-06-12T04:56:45.658Z,20.6
2017-06-12T04:57:44.887Z,20.6
2017-06-12T04:58:44.118Z,20.6
2017-06-12T04:59:43.843Z,20.7
2017-06-12T05:00:43.063Z,20.7
2017-06-12T05:01:42.551Z,20.7
2017-06-12T05:02:41.779Z,20.7
2017-06-12T05:03:41.580Z,20.7
2017-06-12T05:04:40.805Z,20.7
2017-06-12T05:05:40.031Z,20.8
2017-06-12T05:06:39.331Z,20.8
2017-06-12T05:07:39.059Z,20.8
2017-06-12T05:08:38.289Z,20.8
2017-06-12T05:09:37.515Z,20.8
2017-06-12T05:10:37.124Z,20.8
2017-06-12T05:11:36.623Z,20.8
2017-06-12T05:12:35.853Z,20.8
2017-06-12T05:13:35.078Z,20.9
2017-06-12T05:14:34.809Z,20.9
2017-06-12T05:15:34.031Z,20.9
2017-06-12T05:16:33.524Z,20.9
2017-06-12T05:17:32.745Z,20.9
2017-06-12T05:18:32.476Z,20.9
2017-06-12T05:19:31.734Z,20.9
2017-06-12T05:20:31.340Z,20.9
2017-06-12T05:21:30.562Z,20.9
2017-06-12T05:22:29.669Z,21
2017-06-12T05:23:29.973Z,21
2017-06-12T05:25:28.085Z,21
2017-06-12T05:26:27.191Z,21
2017-06-12T05:27:26.919Z,21
2017-06-12T05:28:26.541Z,21
2017-06-12T05:29:25.648Z,21
2017-06-12T05:30:25.266Z,21
2017-06-12T05:31:24.493Z,21
2017-06-12T05:32:24.227Z,21
2017-06-12T05:33:23.455Z,21
2017-06-12T05:34:22.678Z,21
2017-06-12T05:35:22.405Z,21
2017-06-12T05:36:21.511Z,21.1
2017-06-12T05:37:21.243Z,21.1
2017-06-12T05:38:20.464Z,21.1
2017-06-12T05:39:19.684Z,21.1
2017-06-12T05:40:19.419Z,21.1
2017-06-12T05:41:18.655Z,21.1
2017-06-12T05:42:18.264Z,21.1
2017-06-12T05:43:17.485Z,21.1
2017-06-12T05:44:16.702Z,21.2
2017-06-12T05:45:16.313Z,21.2
2017-06-12T05:46:15.539Z,21.3
2017-06-12T05:47:15.274Z,21.3
2017-06-12T05:48:14.499Z,21.3
2017-06-12T05:49:13.733Z,21.3
2017-06-12T05:50:13.347Z,21.3
2017-06-12T05:51:12.578Z,21.3
2017-06-12T05:52:12.306Z,21.3
2017-06-12T05:53:11.337Z,21.3
2017-06-12T05:54:11.069Z,21.3
2017-06-12T05:55:10.177Z,21.3
2017-06-12T05:56:09.799Z,21.3
2017-06-12T05:57:09.024Z,21.3
2017-06-12T05:58:08.626Z,21.3
2017-06-12T05:59:07.865Z,21.2
2017-06-12T06:00:07.473Z,21.2
2017-06-12T06:01:06.694Z,21.2
2017-06-12T06:02:06.308Z,21.2
2017-06-12T06:03:05.531Z,21.2
2017-06-12T06:05:04.646Z,21.1
2017-06-12T06:07:03.151Z,21.1
2017-06-12T06:08:02.757Z,21.1
2017-06-12T06:09:01.985Z,21.1
2017-06-12T06:10:01.718Z,21.1
2017-06-12T06:11:00.871Z,21.1
2017-06-12T06:12:00.479Z,21.1
2017-06-12T06:13:00.090Z,21.1
2017-06-12T06:13:59.314Z,21.1
2017-06-12T06:14:58.544Z,21.1
2017-06-12T06:15:58.271Z,21.1
2017-06-12T06:16:57.493Z,21.2
2017-06-12T06:17:57.218Z,21.2
2017-06-12T06:18:56.439Z,21.2
2017-06-12T06:19:55.579Z,21.2
2017-06-12T06:20:55.085Z,21.2
2017-06-12T06:22:54.081Z,21.2
2017-06-12T06:23:53.309Z,21.3
2017-06-12T06:24:53.043Z,21.2
2017-06-12T06:25:52.277Z,21.2
2017-06-12T06:26:51.501Z,21.2
2017-06-12T06:27:51.233Z,21.3
2017-06-12T06:28:50.466Z,21.2
2017-06-12T06:30:49.577Z,21.2
2017-06-12T06:31:48.679Z,21.2
2017-06-12T06:32:48.401Z,21.3
2017-06-12T06:33:47.388Z,21.3
2017-06-12T06:34:46.994Z,21.3
2017-06-12T06:35:46.727Z,21.3
2017-06-12T06:36:45.715Z,21.3
2017-06-12T06:37:45.450Z,21.2
2017-06-12T06:38:44.677Z,21.2
2017-06-12T06:39:44.313Z,21.2
2017-06-12T06:40:15.425Z,21.2
2017-06-12T06:40:45.459Z,21.2
2017-06-12T06:41:43.184Z,21.2
2017-06-12T06:42:42.414Z,21.2
2017-06-12T06:43:42.053Z,21.2
2017-06-12T06:44:41.277Z,21.2
2017-06-12T06:45:40.509Z,21.2
2017-06-12T06:46:40.121Z,21.2
2017-06-12T06:47:39.343Z,21.2
2017-06-12T06:48:39.067Z,21.2
2017-06-12T06:49:38.174Z,21.3
2017-06-12T06:50:37.906Z,21.4
2017-06-12T06:51:37.129Z,21.4
2017-06-12T06:52:36.882Z,21.4
2017-06-12T06:53:36.113Z,21.4
2017-06-12T06:54:35.489Z,21.5
2017-06-12T06:55:35.100Z,21.5
2017-06-12T06:56:34.905Z,21.5
2017-06-12T06:57:33.627Z,21.5
2017-06-12T06:58:33.356Z,21.4
2017-06-12T06:59:32.581Z,21.4
2017-06-12T07:00:32.223Z,21.4
2017-06-12T07:01:31.442Z,21.4
2017-06-12T07:02:31.165Z,21.5
2017-06-12T07:03:30.274Z,21.5
2017-06-12T07:04:29.881Z,21.5
2017-06-12T07:05:29.109Z,21.6
2017-06-12T07:06:28.923Z,21.6
2017-06-12T07:07:28.030Z,21.6
2017-06-12T07:08:27.759Z,21.6
2017-06-12T07:09:26.983Z,21.6
2017-06-12T07:10:26.215Z,21.6
2017-06-12T07:11:25.943Z,21.6
2017-06-12T07:13:24.558Z,21.6
2017-06-12T07:14:24.167Z,21.7
2017-06-12T07:15:23.675Z,21.7
2017-06-12T07:16:22.778Z,21.7
2017-06-12T07:17:22.502Z,21.6
2017-06-12T07:18:21.611Z,21.5
2017-06-12T07:19:21.399Z,21.4
2017-06-12T07:20:20.626Z,21.4
2017-06-12T07:21:20.349Z,21.3
2017-06-12T07:22:19.579Z,21.3
2017-06-12T07:23:18.804Z,21.2
2017-06-12T07:24:18.534Z,21.2
2017-06-12T07:25:17.519Z,21.2
2017-06-12T07:26:17.245Z,21.3
2017-06-12T07:27:16.355Z,21.3
2017-06-12T07:28:16.085Z,21.3
2017-06-12T07:29:15.272Z,21.2
2017-06-12T07:30:15.009Z,21.2
2017-06-12T07:31:14.237Z,21.1
2017-06-12T07:32:13.958Z,21.2
2017-06-12T07:33:12.863Z,21.1
2017-06-12T07:34:12.855Z,21.1
2017-06-12T07:35:11.960Z,21.1
2017-06-12T07:36:11.658Z,21.1
2017-06-12T07:37:10.842Z,21.2
2017-06-12T07:38:10.570Z,21.2
2017-06-12T07:39:09.796Z,21.2
2017-06-12T07:40:09.522Z,21.3
2017-06-12T07:41:08.623Z,21.2
2017-06-12T07:42:08.240Z,21.2
2017-06-12T07:43:07.346Z,21.3
2017-06-12T07:44:07.084Z,21.1
2017-06-12T07:45:06.304Z,21.2
2017-06-12T07:46:06.035Z,21.2
2017-06-12T07:48:04.529Z,21.1
2017-06-12T07:49:04.262Z,20.9
2017-06-12T07:50:03.368Z,20.9
2017-06-12T07:51:02.738Z,20.9
2017-06-12T07:52:02.264Z,20.9
2017-06-12T07:53:01.996Z,21
2017-06-12T07:54:01.060Z,21
2017-06-12T07:55:59.942Z,21.2
2017-06-12T07:56:59.122Z,21.3
2017-06-12T07:57:58.848Z,21.3
2017-06-12T07:58:58.574Z,21.3
2017-06-12T07:59:58.258Z,21.2
2017-06-12T08:00:56.982Z,21.2
2017-06-12T08:01:57.292Z,21
2017-06-12T08:02:56.016Z,21
2017-06-12T08:03:55.824Z,20.9
2017-06-12T08:04:55.047Z,20.7
2017-06-12T08:05:54.273Z,20.8
2017-06-12T08:06:53.503Z,20.7
2017-06-12T08:07:53.236Z,20.6
2017-06-12T08:08:52.460Z,20.6
2017-06-12T08:09:52.072Z,20.6
2017-06-12T08:10:51.298Z,20.6
2017-06-12T08:12:50.391Z,20.5
2017-06-12T08:13:49.504Z,20.5
2017-06-12T08:14:48.804Z,20.5
2017-06-12T08:15:48.294Z,20.5
2017-06-12T08:16:47.787Z,20.4
2017-06-12T08:17:47.284Z,20.4
2017-06-12T08:19:46.173Z,20.4
2017-06-12T08:20:45.395Z,20.4
2017-06-12T08:21:45.710Z,20.5
2017-06-12T08:22:44.436Z,20.6
2017-06-12T08:23:43.664Z,20.6
2017-06-12T08:24:43.396Z,20.7
2017-06-12T08:25:42.622Z,20.6
2017-06-12T08:26:41.741Z,20.5
2017-06-12T08:27:41.477Z,20.4
2017-06-12T08:28:40.710Z,20.4
2017-06-12T08:29:40.448Z,20.3
2017-06-12T08:30:39.675Z,20.3
2017-06-12T08:31:38.798Z,20.3
2017-06-12T08:32:38.531Z,20.2
2017-06-12T08:33:37.685Z,20.2
2017-06-12T08:34:37.363Z,20.3
2017-06-12T08:35:36.473Z,20.3
2017-06-12T08:36:36.080Z,20.3
2017-06-12T08:37:35.399Z,20.1
2017-06-12T08:38:35.012Z,20.2
2017-06-12T08:39:34.505Z,20.2
2017-06-12T08:40:33.723Z,20.2
2017-06-12T08:41:32.951Z,20.3
2017-06-12T08:42:32.254Z,20.3
2017-06-12T08:43:31.876Z,20.3
2017-06-12T08:44:31.097Z,20.3
2017-06-12T08:45:30.825Z,20.3
2017-06-12T08:46:29.927Z,20.3
2017-06-12T08:47:29.692Z,20.4
2017-06-12T08:48:28.908Z,20.4
2017-06-12T08:49:28.136Z,20.4
2017-06-12T08:50:27.865Z,20.4
2017-06-12T08:51:27.047Z,20.5
2017-06-12T08:52:26.655Z,20.5
2017-06-12T08:53:25.880Z,20.5
2017-06-12T08:54:24.988Z,20.5
2017-06-12T08:55:24.719Z,20.5
2017-06-12T08:56:24.517Z,20.5
2017-06-12T08:57:23.624Z,20.6
2017-06-12T08:58:22.684Z,20.5
2017-06-12T09:00:21.945Z,20.7
2017-06-12T09:01:21.164Z,20.8
2017-06-12T09:02:20.388Z,20.9
2017-06-12T09:03:20.114Z,21
2017-06-12T09:04:19.603Z,21.1
2017-06-12T09:05:18.829Z,21.1
2017-06-12T09:06:18.064Z,21.2
2017-06-12T09:07:17.792Z,21.3
2017-06-12T09:08:17.020Z,21.3
2017-06-12T09:09:16.507Z,21.3
2017-06-12T09:10:15.728Z,21.4
2017-06-12T09:11:15.337Z,21.4
2017-06-12T09:12:14.441Z,21.4
2017-06-12T09:13:13.813Z,21.4
2017-06-12T09:14:13.524Z,21.3
2017-06-12T09:15:12.630Z,21.3
2017-06-12T09:16:12.505Z,21.3
2017-06-12T09:17:11.730Z,21.3
2017-06-12T09:18:11.346Z,21.3
2017-06-12T09:19:10.570Z,21.4
2017-06-12T09:20:09.677Z,21.5
2017-06-12T09:21:09.403Z,21.6
2017-06-12T09:22:08.785Z,21.6
2017-06-12T09:23:08.014Z,21.6
2017-06-12T09:24:07.578Z,21.5
2017-06-12T09:25:06.840Z,21.6
2017-06-12T09:26:06.336Z,21.7
2017-06-12T09:27:06.062Z,21.7
2017-06-12T09:28:05.118Z,21.8
2017-06-12T09:29:04.730Z,21.8
2017-06-12T09:30:03.849Z,21.9
2017-06-12T09:31:03.459Z,21.9
2017-06-12T09:32:03.185Z,21.9
2017-06-12T09:33:02.288Z,21.9
2017-06-12T09:35:01.167Z,22
2017-06-12T09:36:00.395Z,21.9
2017-06-12T09:37:00.125Z,21.9
2017-06-12T09:37:59.345Z,22.1
2017-06-12T09:38:59.064Z,22
2017-06-12T09:39:58.287Z,22
2017-06-12T09:40:57.395Z,21.9
2017-06-12T09:41:56.884Z,22
2017-06-12T09:42:56.488Z,22
2017-06-12T09:43:56.091Z,22
2017-06-12T09:44:55.321Z,22
2017-06-12T09:45:54.937Z,22
2017-06-12T09:46:54.066Z,22.1
2017-06-12T09:47:53.684Z,22.1
2017-06-12T09:48:53.409Z,22.1
2017-06-12T09:49:23.711Z,22.1
2017-06-12T09:49:54.246Z,22.1
2017-06-12T09:50:24.794Z,22.1
2017-06-12T09:51:51.697Z,22.1
2017-06-12T09:52:50.685Z,22.1
2017-06-12T09:53:50.413Z,22.1
2017-06-12T09:54:49.524Z,22.1
2017-06-12T09:55:49.246Z,22.2
2017-06-12T09:56:48.390Z,22.2
2017-06-12T09:57:48.000Z,22.3
2017-06-12T09:58:47.727Z,22.5
2017-06-12T09:59:46.958Z,22.4
2017-06-12T10:00:46.257Z,22.6
2017-06-12T10:01:45.643Z,22.6
2017-06-12T10:02:45.375Z,22.5
2017-06-12T10:03:44.479Z,22.5
2017-06-12T10:05:43.479Z,22.3
2017-06-12T10:06:43.208Z,22.2
2017-06-12T10:07:42.311Z,22.3
2017-06-12T10:08:41.685Z,22.3
2017-06-12T10:09:41.419Z,22.3
2017-06-12T10:10:40.642Z,22.4
2017-06-12T10:11:40.135Z,22.5
2017-06-12T10:12:39.634Z,22.5
2017-06-12T10:13:38.861Z,22.6
2017-06-12T10:14:38.473Z,22.7
2017-06-12T10:15:38.089Z,22.5
2017-06-12T10:16:37.504Z,22.3
2017-06-12T10:17:36.734Z,22.2
2017-06-12T10:18:36.416Z,22.1
2017-06-12T10:19:35.635Z,22.2
2017-06-12T10:20:35.363Z,22.2
2017-06-12T10:21:34.589Z,22.4
2017-06-12T10:22:33.818Z,22.5
2017-06-12T10:23:33.189Z,22.5
2017-06-12T10:24:33.183Z,22.3
2017-06-12T10:26:31.625Z,22.6
2017-06-12T10:27:31.226Z,22.5
2017-06-12T10:28:30.833Z,22.6
2017-06-12T10:29:30.362Z,22.5
2017-06-12T10:30:29.597Z,22.5
2017-06-12T10:32:29.171Z,22.5
2017-06-12T10:33:27.777Z,22.5
2017-06-12T10:34:27.504Z,22.4
2017-06-12T10:35:26.741Z,22.5
2017-06-12T10:36:26.473Z,22.5
2017-06-12T10:37:25.584Z,22.4
2017-06-12T10:38:25.193Z,22.3
2017-06-12T10:39:24.919Z,22.3
2017-06-12T10:40:24.149Z,22.4
2017-06-12T10:41:23.755Z,22.5
2017-06-12T10:42:22.981Z,22.6
2017-06-12T10:43:22.472Z,22.5
2017-06-12T10:44:22.082Z,22.3
2017-06-12T10:45:21.193Z,22.3
2017-06-12T10:46:20.917Z,22.4
2017-06-12T10:47:20.016Z,22.2
2017-06-12T10:48:19.702Z,22.3
2017-06-12T10:49:19.455Z,22.3
2017-06-12T10:50:18.678Z,22.4
2017-06-12T10:51:17.898Z,22.4
2017-06-12T10:52:17.505Z,22.4
2017-06-12T10:53:17.070Z,22.4
2017-06-12T10:54:16.295Z,22.5
2017-06-12T10:55:16.026Z,22.5
2017-06-12T10:56:15.398Z,22.4
2017-06-12T10:57:15.016Z,22.5
2017-06-12T10:58:14.001Z,22.7
2017-06-12T10:59:13.487Z,22.6
2017-06-12T11:00:13.294Z,22.7
2017-06-12T11:01:12.577Z,22.5
2017-06-12T11:02:12.752Z,22.4
2017-06-12T11:03:11.937Z,22.4
2017-06-12T11:04:10.988Z,22.4
2017-06-12T11:06:10.109Z,22.8
2017-06-12T11:07:09.638Z,22.7
2017-06-12T11:08:09.129Z,22.7
2017-06-12T11:09:08.235Z,22.7
2017-06-12T11:11:07.118Z,23
2017-06-12T11:12:06.928Z,23.1
2017-06-12T11:13:05.984Z,23
2017-06-12T11:14:05.597Z,22.9
2017-06-12T11:15:05.205Z,22.9
2017-06-12T11:16:04.577Z,22.9
2017-06-12T11:17:03.830Z,23
2017-06-12T11:18:03.327Z,23.1
2017-06-12T11:19:02.945Z,23
2017-06-12T11:20:02.579Z,23
2017-06-12T11:21:01.961Z,23
2017-06-12T11:22:01.073Z,22.9
2017-06-12T11:23:00.804Z,22.9
2017-06-12T11:24:00.368Z,23
2017-06-12T11:24:59.589Z,22.9
2017-06-12T11:25:59.326Z,22.9
2017-06-12T11:26:58.548Z,23
2017-06-12T11:27:58.274Z,23.2
2017-06-12T11:28:57.883Z,23.2
2017-06-12T11:29:57.112Z,23
2017-06-12T11:30:27.652Z,23
2017-06-12T11:30:58.198Z,23.3
2017-06-12T11:31:55.911Z,23
2017-06-12T11:32:55.558Z,23.3
2017-06-12T11:33:54.783Z,23.3
2017-06-12T11:34:54.510Z,23.4
2017-06-12T11:35:53.618Z,23.4
2017-06-12T11:36:53.229Z,23.3
2017-06-12T11:37:52.839Z,23.3
2017-06-12T11:38:53.149Z,23.1
2017-06-12T11:39:51.630Z,23.2
2017-06-12T11:40:51.275Z,23.3
2017-06-12T11:41:50.886Z,23.5
2017-06-12T11:42:50.494Z,23
2017-06-12T11:43:49.721Z,23.3
2017-06-12T11:44:49.451Z,23.6
2017-06-12T11:45:48.558Z,23.6
2017-06-12T11:46:48.287Z,23.5
2017-06-12T11:47:47.273Z,23.4
2017-06-12T11:48:47.145Z,23.2
2017-06-12T11:49:46.366Z,23.3
2017-06-12T11:51:45.261Z,23.2
2017-06-12T11:52:44.987Z,23
2017-06-12T11:53:44.713Z,23.2
2017-06-12T11:54:43.822Z,23.4
2017-06-12T11:56:42.939Z,23
2017-06-12T11:57:42.624Z,23
2017-06-12T11:58:41.736Z,23
2017-06-12T11:59:41.351Z,23
2017-06-12T12:00:40.459Z,23
2017-06-12T12:01:40.102Z,23.3
2017-06-12T12:02:39.617Z,23.5
2017-06-12T12:03:39.228Z,23.5
2017-06-12T12:04:38.962Z,23.6
2017-06-12T12:05:38.070Z,23.8
2017-06-12T12:06:37.798Z,24.1
2017-06-12T12:07:37.014Z,23.9
2017-06-12T12:08:36.634Z,23.7
2017-06-12T12:09:36.244Z,23.4
2017-06-12T12:10:35.440Z,23.3
2017-06-12T12:11:35.161Z,23.3
2017-06-12T12:12:05.461Z,23.3
2017-06-12T12:12:36.143Z,23.4
2017-06-12T12:13:06.948Z,23.4
2017-06-12T12:14:33.355Z,23.4
2017-06-12T12:15:32.967Z,23.4
2017-06-12T12:16:32.462Z,23.4
2017-06-12T12:17:32.070Z,23.6
2017-06-12T12:18:31.675Z,23.8
2017-06-12T12:19:30.898Z,23.8
2017-06-12T12:20:30.512Z,23.8
2017-06-12T12:21:30.004Z,23.9
2017-06-12T12:22:29.613Z,24
2017-06-12T12:23:28.839Z,24.1
2017-06-12T12:24:28.576Z,23.9
2017-06-12T12:25:27.687Z,23.8
2017-06-12T12:26:27.417Z,23.8
2017-06-12T12:27:26.640Z,23.6
2017-06-12T12:28:26.129Z,23.7
2017-06-12T12:29:25.747Z,23.7
2017-06-12T12:30:25.062Z,23.4
2017-06-12T12:31:24.669Z,23
2017-06-12T12:32:24.165Z,23.5
2017-06-12T12:33:23.890Z,23.5
2017-06-12T12:34:23.117Z,23.6
2017-06-12T12:35:22.806Z,23.6
2017-06-12T12:36:22.057Z,23.5
2017-06-12T12:37:21.740Z,23.6
2017-06-12T12:38:20.961Z,23.4
2017-06-12T12:39:20.569Z,23.4
2017-06-12T12:40:20.248Z,23.4
2017-06-12T12:41:19.234Z,23.6
2017-06-12T12:42:18.972Z,23.7
2017-06-12T12:43:18.710Z,23.6
2017-06-12T12:44:17.895Z,23.5
2017-06-12T12:46:17.115Z,23.7
2017-06-12T12:47:16.728Z,24
2017-06-12T12:48:16.414Z,24.2
2017-06-12T12:49:15.634Z,23.7
2017-06-12T12:50:14.624Z,23.6
2017-06-12T12:51:14.233Z,23.9
2017-06-12T12:52:13.962Z,24.1
2017-06-12T12:53:13.462Z,24.2
2017-06-12T12:54:13.072Z,24.1
2017-06-12T12:55:12.369Z,24
2017-06-12T12:56:12.096Z,24
2017-06-12T12:58:10.974Z,24.2
2017-06-12T12:59:10.197Z,24.2
2017-06-12T13:00:09.924Z,24.4
2017-06-12T13:01:09.148Z,24.5
2017-06-12T13:03:08.267Z,24.1
2017-06-12T13:04:07.872Z,24.2
2017-06-12T13:05:07.316Z,24.3
2017-06-12T13:06:06.922Z,24.4
2017-06-12T13:07:06.533Z,24.4
2017-06-12T13:08:05.756Z,24.2
2017-06-12T13:09:05.363Z,24.3
2017-06-12T13:10:05.050Z,24
2017-06-12T13:11:04.042Z,24.1
2017-06-12T13:12:03.650Z,24.4
2017-06-12T13:13:03.260Z,24.3
2017-06-12T13:14:02.985Z,24.6
2017-06-12T13:15:02.251Z,24.5
2017-06-12T13:16:01.858Z,24.4
2017-06-12T13:17:01.088Z,24.7
2017-06-12T13:18:00.901Z,24.8
2017-06-12T13:19:00.023Z,24.3
2017-06-12T13:19:59.630Z,24.2
2017-06-12T13:20:59.359Z,24.3
2017-06-12T13:21:58.585Z,24.3
2017-06-12T13:22:58.308Z,24.4
2017-06-12T13:23:57.532Z,23.8
2017-06-12T13:24:57.145Z,23.6
2017-06-12T13:25:56.756Z,23.3
2017-06-12T13:26:56.063Z,23.1
2017-06-12T13:27:55.674Z,23
2017-06-12T13:28:55.289Z,22.8
2017-06-12T13:29:54.899Z,22.5
2017-06-12T13:30:53.972Z,22.7
2017-06-12T13:31:53.697Z,22.5
2017-06-12T13:32:53.313Z,23
2017-06-12T13:33:52.534Z,23.1
2017-06-12T13:34:52.147Z,23.4
2017-06-12T13:36:51.269Z,23.7
2017-06-12T13:37:50.496Z,23.9